Helas — C4AZ2 — position and weather

sailwx.info

Track history (hours):
 
Tides and Currents Weather Stations Pressure Air Temp Water Temp Dewpoint Dewpoint Depression Visibility Wind Speed Wind Dir Waves Ship Positions

Helas

Last reported at 2017-May-26 11:00 UTC. Time now 2017-May-26 14:45 UTC.
Position N 50°23' W 000°44'.

Length 89 m; draft 5.6 m.

Type: Cargo ship. MMSI: 210031000.

Date/timePositionNaut miles runAvg speedWind from/ knotsBaromVisibWave heightAir tempDewpointWater temp
2017-May-26 11:00N 50°23' W 000°44'4 7.7
2017-May-26 10:28N 50°24' W 000°38'6 6.9
2017-May-26 09:36N 50°26' W 000°29'1 6.6
2017-May-26 09:30N 50°26' W 000°28'3 6.6
2017-May-26 09:00N 50°27' W 000°23'3 6.7
2017-May-26 08:31N 50°28' W 000°18'4 7.0
2017-May-26 08:00N 50°29' W 000°13'4 7.5
2017-May-26 07:30N 50°30' W 000°07'4 8.1
2017-May-26 07:01N 50°31' W 000°01'4 8.8
2017-May-26 06:30N 50°33' E 000°06'5 9.6
2017-May-26 06:00N 50°34' E 000°13'510.3
2017-May-26 05:29N 50°36' E 000°21'511.0
2017-May-26 05:00N 50°37' E 000°29'511.0
2017-May-26 04:30N 50°39' E 000°37'511.1
2017-May-26 04:01N 50°43' E 000°44'510.8
2017-May-26 03:30N 50°46' E 000°51'510.3
2017-May-26 03:00N 50°49' E 000°57'5 9.7
2017-May-26 02:30N 50°52' E 001°03'5 9.2
2017-May-26 02:00N 50°55' E 001°09'4 8.6
2017-May-26 01:30N 50°57' E 001°14'4 7.7
2017-May-26 01:00N 50°60' E 001°19'4 6.9
2017-May-26 00:30N 51°02' E 001°23'3 6.5
2017-May-26 00:01N 51°04' E 001°27'3 6.9
2017-May-25 23:30N 51°07' E 001°31'4 7.4
2017-May-25 23:01N 51°09' E 001°36'4 8.1
2017-May-25 22:31N 51°12' E 001°40'4 8.7
2017-May-25 22:01N 51°14' E 001°46'510.3
2017-May-25 21:31N 51°19' E 001°50'611.4
2017-May-25 21:00N 51°24' E 001°55'611.9
2017-May-25 20:30N 51°28' E 002°01'612.0
2017-May-25 20:00N 51°33' E 002°07'611.9
2017-May-25 19:30N 51°37' E 002°14'611.8
2017-May-25 19:00N 51°41' E 002°20'611.5
2017-May-25 18:30N 51°46' E 002°26'510.9
2017-May-25 18:01N 51°50' E 002°32'510.3
2017-May-25 17:30N 51°54' E 002°38'5 9.7
2017-May-25 17:00N 51°58' E 002°42'5 9.3
2017-May-25 16:30N 52°01' E 002°47'4 8.8
2017-May-25 16:00N 52°04' E 002°52'8 8.4
2017-May-25 15:00N 52°11' E 003°01'14 8.0
2017-May-25 13:15N 52°18' E 003°21'14 8.6
2017-May-25 11:39N 52°26' E 003°39'1 9.7
2017-May-25 11:30N 52°27' E 003°41'510.0
2017-May-25 10:59N 52°29' E 003°48'510.0
2017-May-25 10:30N 52°31' E 003°56'510.0
2017-May-25 10:00N 52°31' E 004°04'510.0
2017-May-25 09:30N 52°31' E 004°12'5 9.5
2017-May-25 09:00N 52°30' E 004°20'5 9.7
2017-May-25 08:30N 52°29' E 004°28'5 9.1
2017-May-25 08:01N 52°28' E 004°35'1 1.9
2017-May-25 07:30N 52°28' E 004°36'0 0.0
2017-May-25 07:00N 52°28' E 004°36'0 0.0
2017-May-25 06:31N 52°28' E 004°36'0 0.0
2017-May-25 06:01N 52°28' E 004°36'0 0.0
2017-May-25 05:30N 52°28' E 004°36'0 0.0
2017-May-25 05:00N 52°28' E 004°36'0 0.0
2017-May-25 04:30N 52°28' E 004°36'0 0.0
2017-May-25 04:00N 52°28' E 004°36'0 0.0
2017-May-25 03:30N 52°28' E 004°36'0 0.0
2017-May-25 03:00N 52°28' E 004°36'0 0.0
2017-May-25 02:30N 52°28' E 004°36'0 0.0
2017-May-25 02:01N 52°28' E 004°36'0 0.0
2017-May-25 01:31N 52°28' E 004°36'0 0.3
2017-May-25 01:00N 52°28' E 004°36'0 0.3
2017-May-25 00:31N 52°28' E 004°36'0 0.0
2017-May-25 00:00N 52°28' E 004°36'0 0.0
2017-May-24 23:31N 52°28' E 004°36'0 0.0
2017-May-24 23:01N 52°28' E 004°36'0 0.0
2017-May-24 22:30N 52°28' E 004°36'0 0.0
2017-May-24 22:00N 52°28' E 004°36'0 0.0
2017-May-24 21:30N 52°28' E 004°36'0 0.0
2017-May-24 21:00N 52°28' E 004°36'0 0.0
2017-May-24 20:30N 52°28' E 004°36'0 0.0
2017-May-24 20:00N 52°28' E 004°36'0 0.0
2017-May-24 19:30N 52°28' E 004°36'0 0.0
2017-May-24 19:00N 52°28' E 004°36'0 0.0
2017-May-24 18:30N 52°28' E 004°36'0 0.0
2017-May-24 18:00N 52°28' E 004°36'0 0.0
2017-May-24 17:30N 52°28' E 004°36'0 0.0
2017-May-24 17:00N 52°28' E 004°36'0 0.0
2017-May-24 16:30N 52°28' E 004°36'0 0.0
2017-May-24 16:00N 52°28' E 004°36'0 0.0
2017-May-24 15:30N 52°28' E 004°36'0 0.0
2017-May-24 15:00N 52°28' E 004°36'0 0.1
2017-May-24 14:30N 52°28' E 004°36'0 0.0
2017-May-24 13:30N 52°28' E 004°36'0 0.0
2017-May-24 13:00N 52°28' E 004°36'0 0.0
2017-May-24 12:30N 52°28' E 004°36'1 1.7
2017-May-24 12:00N 52°28' E 004°35'5 9.6
2017-May-24 11:30N 52°28' E 004°27'5 9.6
2017-May-24 11:00N 52°25' E 004°22'510.6
2017-May-24 10:31N 52°21' E 004°17'510.1
2017-May-24 10:00N 52°17' E 004°11'5 9.6
2017-May-24 09:30N 52°13' E 004°06'5 9.6
2017-May-24 09:01N 52°09' E 004°02'5 9.9
2017-May-24 08:31N 52°05' E 003°57'3 6.9
2017-May-24 08:00N 52°02' E 003°55'612.2
2017-May-24 07:31N 51°59' E 004°04'612.6
2017-May-24 07:00N 51°56' E 004°13'611.1
2017-May-24 06:31N 51°54' E 004°21'4 8.1
2017-May-24 06:00N 51°54' E 004°28'0 0.0
2017-May-24 05:30N 51°54' E 004°28'0 0.0
2017-May-24 05:00N 51°54' E 004°28'0 0.0
2017-May-24 04:30N 51°54' E 004°28'0 0.0
2017-May-24 04:00N 51°54' E 004°28'0 0.0
2017-May-24 03:30N 51°54' E 004°28'0 0.0
2017-May-24 03:00N 51°54' E 004°28'0 0.0
2017-May-24 02:31N 51°54' E 004°28'0 0.0
2017-May-24 02:00N 51°54' E 004°28'0 0.0
2017-May-24 01:31N 51°54' E 004°28'0 0.0
2017-May-24 01:01N 51°54' E 004°28'0 0.0
2017-May-24 00:31N 51°54' E 004°28'0 0.0
2017-May-24 00:01N 51°54' E 004°28'0 0.0
2017-May-23 23:30N 51°54' E 004°28'0 0.0
2017-May-23 23:01N 51°54' E 004°28'0 0.0
2017-May-23 22:30N 51°54' E 004°28'0 0.0
2017-May-23 22:00N 51°54' E 004°28'0 0.2
2017-May-23 21:30N 51°54' E 004°28'2 4.1
2017-May-23 21:00N 51°54' E 004°25'0 0.0
2017-May-23 20:30N 51°54' E 004°25'0 0.0
2017-May-23 20:00N 51°54' E 004°25'0 0.0
2017-May-23 19:30N 51°54' E 004°25'0 0.0
2017-May-23 19:00N 51°54' E 004°25'0 0.0
2017-May-23 18:30N 51°54' E 004°25'0 0.0
2017-May-23 18:00N 51°54' E 004°25'0 0.0
2017-May-23 17:30N 51°54' E 004°25'0 0.0
2017-May-23 17:00N 51°54' E 004°25'0 0.0
2017-May-23 16:30N 51°54' E 004°25'0 0.0
2017-May-23 16:00N 51°54' E 004°25'0 0.0
2017-May-23 15:30N 51°54' E 004°25'0 0.0
2017-May-23 15:00N 51°54' E 004°25'0 0.0
2017-May-23 14:00N 51°54' E 004°25'0 0.0
2017-May-23 13:30N 51°54' E 004°25'0 0.0
2017-May-23 13:00N 51°54' E 004°25'0 0.0
2017-May-23 12:30N 51°54' E 004°25'0 0.0
2017-May-23 12:00N 51°54' E 004°25'0 0.0
2017-May-23 11:30N 51°54' E 004°25'0 0.0
2017-May-23 11:00N 51°54' E 004°25'0 0.0
2017-May-23 10:30N 51°54' E 004°25'0 0.0
2017-May-23 10:00N 51°54' E 004°25'0 0.0
2017-May-23 09:30N 51°54' E 004°25'0 0.0
2017-May-23 09:00N 51°54' E 004°25'0 0.0
2017-May-23 08:30N 51°54' E 004°25'0 0.0
2017-May-23 08:00N 51°54' E 004°25'0 0.0
2017-May-23 07:30N 51°54' E 004°25'0 0.0
2017-May-23 07:00N 51°54' E 004°25'0 0.0
2017-May-23 06:30N 51°54' E 004°25'0 0.0
2017-May-23 06:00N 51°54' E 004°25'0 0.0
2017-May-23 05:30N 51°54' E 004°25'0 0.0
2017-May-23 05:00N 51°54' E 004°25'0 0.0
2017-May-23 04:30N 51°54' E 004°25'0 0.0
2017-May-23 04:00N 51°54' E 004°25'0 0.0
2017-May-23 03:30N 51°54' E 004°25'0 0.0
2017-May-23 03:00N 51°54' E 004°25'0 0.0
2017-May-23 02:30N 51°54' E 004°25'0 0.0
2017-May-23 02:00N 51°54' E 004°25'0 0.0
2017-May-23 01:30N 51°54' E 004°25'0 0.0
2017-May-23 01:00N 51°54' E 004°25'0 0.0
2017-May-23 00:30N 51°54' E 004°25'0 0.0
2017-May-23 00:00N 51°54' E 004°25'0 0.0
2017-May-22 23:30N 51°54' E 004°25'0 0.0
2017-May-22 23:00N 51°54' E 004°25'0 0.0
2017-May-22 22:30N 51°54' E 004°25'0 0.0
2017-May-22 22:00N 51°54' E 004°25'0 0.0
2017-May-22 21:30N 51°54' E 004°25'0 0.0
2017-May-22 21:00N 51°54' E 004°25'0 0.0
2017-May-22 20:30N 51°54' E 004°25'0 0.0
2017-May-22 20:00N 51°54' E 004°25'0 0.0
2017-May-22 19:30N 51°54' E 004°25'0 0.0
2017-May-22 19:00N 51°54' E 004°25'0 0.0
2017-May-22 18:30N 51°54' E 004°25'0 0.0
2017-May-22 18:00N 51°54' E 004°25'0 0.0
2017-May-22 17:30N 51°54' E 004°25'0 0.0
2017-May-22 17:00N 51°54' E 004°25'0 0.0
2017-May-22 16:30N 51°54' E 004°25'0 0.0
2017-May-22 16:00N 51°54' E 004°25'0 0.0
2017-May-22 15:30N 51°54' E 004°25'0 0.0
2017-May-22 15:00N 51°54' E 004°25'0 0.0
2017-May-22 14:00N 51°54' E 004°25'0 0.0
2017-May-22 13:30N 51°54' E 004°25'0 0.0
2017-May-22 13:00N 51°54' E 004°25'0 0.0
2017-May-22 12:30N 51°54' E 004°25'0 0.1
2017-May-22 12:00N 51°54' E 004°25'0 0.0
2017-May-22 11:30N 51°54' E 004°25'0 0.0
2017-May-22 11:00N 51°54' E 004°25'0 0.0
2017-May-22 10:30N 51°54' E 004°25'0 0.0
2017-May-22 10:00N 51°54' E 004°25'0 0.0
2017-May-22 09:30N 51°54' E 004°25'0 0.0
2017-May-22 09:00N 51°54' E 004°25'0 0.0
2017-May-22 08:30N 51°54' E 004°25'0 0.0
2017-May-22 08:00N 51°54' E 004°25'0 0.0
2017-May-22 07:30N 51°54' E 004°25'0 0.0
2017-May-22 07:00N 51°54' E 004°25'0 0.0
2017-May-22 06:30N 51°54' E 004°25'0 0.0
2017-May-22 06:00N 51°54' E 004°25'0 0.0
2017-May-22 05:30N 51°54' E 004°25'0 0.0
2017-May-22 05:00N 51°54' E 004°25'0 0.0
2017-May-22 04:30N 51°54' E 004°25'0 0.0
2017-May-22 04:00N 51°54' E 004°25'0 0.0
2017-May-22 03:30N 51°54' E 004°25'0 0.0
2017-May-22 03:00N 51°54' E 004°25'0 0.0
2017-May-22 02:30N 51°54' E 004°25'0 0.0
2017-May-22 02:00N 51°54' E 004°25'0 0.0
2017-May-22 01:30N 51°54' E 004°25'0 0.0
2017-May-22 01:00N 51°54' E 004°25'0 0.0
2017-May-22 00:30N 51°54' E 004°25'0 0.0
2017-May-22 00:00N 51°54' E 004°25'0 0.0
2017-May-21 23:30N 51°54' E 004°25'0 0.0
2017-May-21 23:00N 51°54' E 004°25'0 0.0
2017-May-21 22:30N 51°54' E 004°25'0 0.0
2017-May-21 22:00N 51°54' E 004°25'0 0.0
2017-May-21 21:30N 51°54' E 004°25'0 0.0
2017-May-21 21:00N 51°54' E 004°25'0 0.0
2017-May-21 20:30N 51°54' E 004°25'0 0.0
2017-May-21 20:00N 51°54' E 004°25'0 0.0
2017-May-21 19:30N 51°54' E 004°25'0 0.0
2017-May-21 19:00N 51°54' E 004°25'0 0.0
2017-May-21 18:30N 51°54' E 004°25'0 0.0
2017-May-21 18:00N 51°54' E 004°25'0 0.0
2017-May-21 17:30N 51°54' E 004°25'0 0.0
2017-May-21 17:00N 51°54' E 004°25'0 0.0
2017-May-21 16:30N 51°54' E 004°25'0 0.1
2017-May-21 16:00N 51°54' E 004°25'0 0.0
2017-May-21 15:30N 51°54' E 004°25'0 0.0
2017-May-21 15:00N 51°54' E 004°25'0 0.0
2017-May-21 14:00N 51°54' E 004°25'0 0.0
2017-May-21 13:30N 51°54' E 004°25'0 0.0
2017-May-21 13:00N 51°54' E 004°25'0 0.0
2017-May-21 12:30N 51°54' E 004°25'0 0.0
2017-May-21 12:00N 51°54' E 004°25'0 0.0
2017-May-21 11:30N 51°54' E 004°25'0 0.0
2017-May-21 11:00N 51°54' E 004°25'0 0.0
2017-May-21 10:30N 51°54' E 004°25'0 0.0
2017-May-21 10:00N 51°54' E 004°25'0 0.0
2017-May-21 09:30N 51°54' E 004°25'0 0.0
2017-May-21 09:00N 51°54' E 004°25'0 0.0
2017-May-21 08:30N 51°54' E 004°25'0 0.0
2017-May-21 08:00N 51°54' E 004°25'0 0.0
2017-May-21 07:30N 51°54' E 004°25'0 0.0
2017-May-21 07:00N 51°54' E 004°25'0 0.0
2017-May-21 06:30N 51°54' E 004°25'0 0.2
2017-May-21 06:00N 51°54' E 004°25'4 7.1
2017-May-21 05:30N 51°54' E 004°19'4 7.5
2017-May-21 05:00N 51°55' E 004°14'4 7.3
2017-May-21 04:30N 51°57' E 004°09'3 6.9
2017-May-21 04:00N 51°59' E 004°04'3 6.9
2017-May-21 03:30N 52°00' E 003°59'4 8.6
2017-May-21 03:00N 51°60' E 003°52'4 8.5
2017-May-21 02:30N 51°59' E 003°45'4 8.8
2017-May-21 02:00N 51°57' E 003°39'4 8.9
2017-May-21 01:30N 51°56' E 003°32'5 9.3
2017-May-21 01:00N 51°55' E 003°25'5 9.6
2017-May-21 00:29N 51°53' E 003°17'6 9.8
2017-May-20 23:54N 51°52' E 003°08'37 9.9
2017-May-20 20:09N 51°31' E 002°18'210.8
2017-May-20 20:00N 51°30' E 002°16'510.6
2017-May-20 19:30N 51°25' E 002°12'510.4
2017-May-20 19:00N 51°21' E 002°09'510.4
2017-May-20 18:30N 51°16' E 002°05'5 9.9
2017-May-20 18:00N 51°12' E 002°00'510.1
2017-May-20 17:30N 51°09' E 001°54'5 9.8
2017-May-20 17:00N 51°06' E 001°48'5 9.7
2017-May-20 16:30N 51°02' E 001°42'5 9.2
2017-May-20 16:00N 50°59' E 001°37'4 8.7
2017-May-20 15:30N 50°56' E 001°33'4 7.9
2017-May-20 14:59N 50°52' E 001°29'60 7.9
2017-May-20 07:27N 50°20' E 000°10'5 9.1
2017-May-20 06:53N 50°19' E 000°02'5 9.2
2017-May-20 06:21N 50°18' W 000°05'8 9.4
2017-May-20 05:33N 50°15' W 000°17'1 9.6
2017-May-20 05:29N 50°15' W 000°18'113 9.6
2017-May-19 17:42N 49°41' W 003°06'91 9.6
2017-May-19 08:12N 48°56' W 005°06'2 9.9
2017-May-19 07:58N 48°55' W 005°10'  
2017-May-17 02:21N 42°02' W 009°16'21 8.1
2017-May-16 23:46N 41°42' W 009°06'2 8.0
2017-May-16 23:29N 41°40' W 009°04'4 7.9
2017-May-16 22:59N 41°37' W 009°02'4 7.9
2017-May-16 22:28N 41°33' W 008°60'4 7.8
2017-May-16 21:56N 41°29' W 008°58'3 7.8
2017-May-16 21:30N 41°26' W 008°56'4 7.7
2017-May-16 20:57N 41°22' W 008°54'3 7.8
2017-May-16 20:30N 41°19' W 008°52'7 7.7
2017-May-16 19:36N 41°13' W 008°48'1 6.8
2017-May-16 19:30N 41°12' W 008°48'3 6.8
2017-May-16 19:00N 41°10' W 008°44'  
Track history (hours):
 
Tides and Currents Weather Stations Pressure Air Temp Water Temp Dewpoint Dewpoint Depression Visibility Wind Speed Wind Dir Waves Ship Positions

Helas

Last reported at 2017-May-26 11:00 UTC. Time now 2017-May-26 14:45 UTC.
Position N 50°23' W 000°44'.

Length 89 m; draft 5.6 m.

Type: Cargo ship. MMSI: 210031000.

Date/timePositionNaut miles runAvg speedWind from/ knotsBaromVisibWave heightAir tempDewpointWater temp
2017-May-26 11:00N 50°23' W 000°44'4 7.7
2017-May-26 10:28N 50°24' W 000°38'6 6.9
2017-May-26 09:36N 50°26' W 000°29'1 6.6
2017-May-26 09:30N 50°26' W 000°28'3 6.6
2017-May-26 09:00N 50°27' W 000°23'3 6.7
2017-May-26 08:31N 50°28' W 000°18'4 7.0
2017-May-26 08:00N 50°29' W 000°13'4 7.5
2017-May-26 07:30N 50°30' W 000°07'4 8.1
2017-May-26 07:01N 50°31' W 000°01'4 8.8
2017-May-26 06:30N 50°33' E 000°06'5 9.6
2017-May-26 06:00N 50°34' E 000°13'510.3
2017-May-26 05:29N 50°36' E 000°21'511.0
2017-May-26 05:00N 50°37' E 000°29'511.0
2017-May-26 04:30N 50°39' E 000°37'511.1
2017-May-26 04:01N 50°43' E 000°44'510.8
2017-May-26 03:30N 50°46' E 000°51'510.3
2017-May-26 03:00N 50°49' E 000°57'5 9.7
2017-May-26 02:30N 50°52' E 001°03'5 9.2
2017-May-26 02:00N 50°55' E 001°09'4 8.6
2017-May-26 01:30N 50°57' E 001°14'4 7.7
2017-May-26 01:00N 50°60' E 001°19'4 6.9
2017-May-26 00:30N 51°02' E 001°23'3 6.5
2017-May-26 00:01N 51°04' E 001°27'3 6.9
2017-May-25 23:30N 51°07' E 001°31'4 7.4
2017-May-25 23:01N 51°09' E 001°36'4 8.1
2017-May-25 22:31N 51°12' E 001°40'4 8.7
2017-May-25 22:01N 51°14' E 001°46'510.3
2017-May-25 21:31N 51°19' E 001°50'611.4
2017-May-25 21:00N 51°24' E 001°55'611.9
2017-May-25 20:30N 51°28' E 002°01'612.0
2017-May-25 20:00N 51°33' E 002°07'611.9
2017-May-25 19:30N 51°37' E 002°14'611.8
2017-May-25 19:00N 51°41' E 002°20'611.5
2017-May-25 18:30N 51°46' E 002°26'510.9
2017-May-25 18:01N 51°50' E 002°32'510.3
2017-May-25 17:30N 51°54' E 002°38'5 9.7
2017-May-25 17:00N 51°58' E 002°42'5 9.3
2017-May-25 16:30N 52°01' E 002°47'4 8.8
2017-May-25 16:00N 52°04' E 002°52'8 8.4
2017-May-25 15:00N 52°11' E 003°01'14 8.0
2017-May-25 13:15N 52°18' E 003°21'14 8.6
2017-May-25 11:39N 52°26' E 003°39'1 9.7
2017-May-25 11:30N 52°27' E 003°41'510.0
2017-May-25 10:59N 52°29' E 003°48'510.0
2017-May-25 10:30N 52°31' E 003°56'510.0
2017-May-25 10:00N 52°31' E 004°04'510.0
2017-May-25 09:30N 52°31' E 004°12'5 9.5
2017-May-25 09:00N 52°30' E 004°20'5 9.7
2017-May-25 08:30N 52°29' E 004°28'5 9.1
2017-May-25 08:01N 52°28' E 004°35'1 1.9
2017-May-25 07:30N 52°28' E 004°36'0 0.0
2017-May-25 07:00N 52°28' E 004°36'0 0.0
2017-May-25 06:31N 52°28' E 004°36'0 0.0
2017-May-25 06:01N 52°28' E 004°36'0 0.0
2017-May-25 05:30N 52°28' E 004°36'0 0.0
2017-May-25 05:00N 52°28' E 004°36'0 0.0
2017-May-25 04:30N 52°28' E 004°36'0 0.0
2017-May-25 04:00N 52°28' E 004°36'0 0.0
2017-May-25 03:30N 52°28' E 004°36'0 0.0
2017-May-25 03:00N 52°28' E 004°36'0 0.0
2017-May-25 02:30N 52°28' E 004°36'0 0.0
2017-May-25 02:01N 52°28' E 004°36'0 0.0
2017-May-25 01:31N 52°28' E 004°36'0 0.3
2017-May-25 01:00N 52°28' E 004°36'0 0.3
2017-May-25 00:31N 52°28' E 004°36'0 0.0
2017-May-25 00:00N 52°28' E 004°36'0 0.0
2017-May-24 23:31N 52°28' E 004°36'0 0.0
2017-May-24 23:01N 52°28' E 004°36'0 0.0
2017-May-24 22:30N 52°28' E 004°36'0 0.0
2017-May-24 22:00N 52°28' E 004°36'0 0.0
2017-May-24 21:30N 52°28' E 004°36'0 0.0
2017-May-24 21:00N 52°28' E 004°36'0 0.0
2017-May-24 20:30N 52°28' E 004°36'0 0.0
2017-May-24 20:00N 52°28' E 004°36'0 0.0
2017-May-24 19:30N 52°28' E 004°36'0 0.0
2017-May-24 19:00N 52°28' E 004°36'0 0.0
2017-May-24 18:30N 52°28' E 004°36'0 0.0
2017-May-24 18:00N 52°28' E 004°36'0 0.0
2017-May-24 17:30N 52°28' E 004°36'0 0.0
2017-May-24 17:00N 52°28' E 004°36'0 0.0
2017-May-24 16:30N 52°28' E 004°36'0 0.0
2017-May-24 16:00N 52°28' E 004°36'0 0.0
2017-May-24 15:30N 52°28' E 004°36'0 0.0
2017-May-24 15:00N 52°28' E 004°36'0 0.1
2017-May-24 14:30N 52°28' E 004°36'0 0.0
2017-May-24 13:30N 52°28' E 004°36'0 0.0
2017-May-24 13:00N 52°28' E 004°36'0 0.0
2017-May-24 12:30N 52°28' E 004°36'1 1.7
2017-May-24 12:00N 52°28' E 004°35'5 9.6
2017-May-24 11:30N 52°28' E 004°27'5 9.6
2017-May-24 11:00N 52°25' E 004°22'510.6
2017-May-24 10:31N 52°21' E 004°17'510.1
2017-May-24 10:00N 52°17' E 004°11'5 9.6
2017-May-24 09:30N 52°13' E 004°06'5 9.6
2017-May-24 09:01N 52°09' E 004°02'5 9.9
2017-May-24 08:31N 52°05' E 003°57'3 6.9
2017-May-24 08:00N 52°02' E 003°55'612.2
2017-May-24 07:31N 51°59' E 004°04'612.6
2017-May-24 07:00N 51°56' E 004°13'611.1
2017-May-24 06:31N 51°54' E 004°21'4 8.1
2017-May-24 06:00N 51°54' E 004°28'0 0.0
2017-May-24 05:30N 51°54' E 004°28'0 0.0
2017-May-24 05:00N 51°54' E 004°28'0 0.0
2017-May-24 04:30N 51°54' E 004°28'0 0.0
2017-May-24 04:00N 51°54' E 004°28'0 0.0
2017-May-24 03:30N 51°54' E 004°28'0 0.0
2017-May-24 03:00N 51°54' E 004°28'0 0.0
2017-May-24 02:31N 51°54' E 004°28'0 0.0
2017-May-24 02:00N 51°54' E 004°28'0 0.0
2017-May-24 01:31N 51°54' E 004°28'0 0.0
2017-May-24 01:01N 51°54' E 004°28'0 0.0
2017-May-24 00:31N 51°54' E 004°28'0 0.0
2017-May-24 00:01N 51°54' E 004°28'0 0.0
2017-May-23 23:30N 51°54' E 004°28'0 0.0
2017-May-23 23:01N 51°54' E 004°28'0 0.0
2017-May-23 22:30N 51°54' E 004°28'0 0.0
2017-May-23 22:00N 51°54' E 004°28'0 0.2
2017-May-23 21:30N 51°54' E 004°28'2 4.1
2017-May-23 21:00N 51°54' E 004°25'0 0.0
2017-May-23 20:30N 51°54' E 004°25'0 0.0
2017-May-23 20:00N 51°54' E 004°25'0 0.0
2017-May-23 19:30N 51°54' E 004°25'0 0.0
2017-May-23 19:00N 51°54' E 004°25'0 0.0
2017-May-23 18:30N 51°54' E 004°25'0 0.0
2017-May-23 18:00N 51°54' E 004°25'0 0.0
2017-May-23 17:30N 51°54' E 004°25'0 0.0
2017-May-23 17:00N 51°54' E 004°25'0 0.0
2017-May-23 16:30N 51°54' E 004°25'0 0.0
2017-May-23 16:00N 51°54' E 004°25'0 0.0
2017-May-23 15:30N 51°54' E 004°25'0 0.0
2017-May-23 15:00N 51°54' E 004°25'0 0.0
2017-May-23 14:00N 51°54' E 004°25'0 0.0
2017-May-23 13:30N 51°54' E 004°25'0 0.0
2017-May-23 13:00N 51°54' E 004°25'0 0.0
2017-May-23 12:30N 51°54' E 004°25'0 0.0
2017-May-23 12:00N 51°54' E 004°25'0 0.0
2017-May-23 11:30N 51°54' E 004°25'0 0.0
2017-May-23 11:00N 51°54' E 004°25'0 0.0
2017-May-23 10:30N 51°54' E 004°25'0 0.0
2017-May-23 10:00N 51°54' E 004°25'0 0.0
2017-May-23 09:30N 51°54' E 004°25'0 0.0
2017-May-23 09:00N 51°54' E 004°25'0 0.0
2017-May-23 08:30N 51°54' E 004°25'0 0.0
2017-May-23 08:00N 51°54' E 004°25'0 0.0
2017-May-23 07:30N 51°54' E 004°25'0 0.0
2017-May-23 07:00N 51°54' E 004°25'0 0.0
2017-May-23 06:30N 51°54' E 004°25'0 0.0
2017-May-23 06:00N 51°54' E 004°25'0 0.0
2017-May-23 05:30N 51°54' E 004°25'0 0.0
2017-May-23 05:00N 51°54' E 004°25'0 0.0
2017-May-23 04:30N 51°54' E 004°25'0 0.0
2017-May-23 04:00N 51°54' E 004°25'0 0.0
2017-May-23 03:30N 51°54' E 004°25'0 0.0
2017-May-23 03:00N 51°54' E 004°25'0 0.0
2017-May-23 02:30N 51°54' E 004°25'0 0.0
2017-May-23 02:00N 51°54' E 004°25'0 0.0
2017-May-23 01:30N 51°54' E 004°25'0 0.0
2017-May-23 01:00N 51°54' E 004°25'0 0.0
2017-May-23 00:30N 51°54' E 004°25'0 0.0
2017-May-23 00:00N 51°54' E 004°25'0 0.0
2017-May-22 23:30N 51°54' E 004°25'0 0.0
2017-May-22 23:00N 51°54' E 004°25'0 0.0
2017-May-22 22:30N 51°54' E 004°25'0 0.0
2017-May-22 22:00N 51°54' E 004°25'0 0.0
2017-May-22 21:30N 51°54' E 004°25'0 0.0
2017-May-22 21:00N 51°54' E 004°25'0 0.0
2017-May-22 20:30N 51°54' E 004°25'0 0.0
2017-May-22 20:00N 51°54' E 004°25'0 0.0
2017-May-22 19:30N 51°54' E 004°25'0 0.0
2017-May-22 19:00N 51°54' E 004°25'0 0.0
2017-May-22 18:30N 51°54' E 004°25'0 0.0
2017-May-22 18:00N 51°54' E 004°25'0 0.0
2017-May-22 17:30N 51°54' E 004°25'0 0.0
2017-May-22 17:00N 51°54' E 004°25'0 0.0
2017-May-22 16:30N 51°54' E 004°25'0 0.0
2017-May-22 16:00N 51°54' E 004°25'0 0.0
2017-May-22 15:30N 51°54' E 004°25'0 0.0
2017-May-22 15:00N 51°54' E 004°25'0 0.0
2017-May-22 14:00N 51°54' E 004°25'0 0.0
2017-May-22 13:30N 51°54' E 004°25'0 0.0
2017-May-22 13:00N 51°54' E 004°25'0 0.0
2017-May-22 12:30N 51°54' E 004°25'0 0.1
2017-May-22 12:00N 51°54' E 004°25'0 0.0
2017-May-22 11:30N 51°54' E 004°25'0 0.0
2017-May-22 11:00N 51°54' E 004°25'0 0.0
2017-May-22 10:30N 51°54' E 004°25'0 0.0
2017-May-22 10:00N 51°54' E 004°25'0 0.0
2017-May-22 09:30N 51°54' E 004°25'0 0.0
2017-May-22 09:00N 51°54' E 004°25'0 0.0
2017-May-22 08:30N 51°54' E 004°25'0 0.0
2017-May-22 08:00N 51°54' E 004°25'0 0.0
2017-May-22 07:30N 51°54' E 004°25'0 0.0
2017-May-22 07:00N 51°54' E 004°25'0 0.0
2017-May-22 06:30N 51°54' E 004°25'0 0.0
2017-May-22 06:00N 51°54' E 004°25'0 0.0
2017-May-22 05:30N 51°54' E 004°25'0 0.0
2017-May-22 05:00N 51°54' E 004°25'0 0.0
2017-May-22 04:30N 51°54' E 004°25'0 0.0
2017-May-22 04:00N 51°54' E 004°25'0 0.0
2017-May-22 03:30N 51°54' E 004°25'0 0.0
2017-May-22 03:00N 51°54' E 004°25'0 0.0
2017-May-22 02:30N 51°54' E 004°25'0 0.0
2017-May-22 02:00N 51°54' E 004°25'0 0.0
2017-May-22 01:30N 51°54' E 004°25'0 0.0
2017-May-22 01:00N 51°54' E 004°25'0 0.0
2017-May-22 00:30N 51°54' E 004°25'0 0.0
2017-May-22 00:00N 51°54' E 004°25'0 0.0
2017-May-21 23:30N 51°54' E 004°25'0 0.0
2017-May-21 23:00N 51°54' E 004°25'0 0.0
2017-May-21 22:30N 51°54' E 004°25'0 0.0
2017-May-21 22:00N 51°54' E 004°25'0 0.0
2017-May-21 21:30N 51°54' E 004°25'0 0.0
2017-May-21 21:00N 51°54' E 004°25'0 0.0
2017-May-21 20:30N 51°54' E 004°25'0 0.0
2017-May-21 20:00N 51°54' E 004°25'0 0.0
2017-May-21 19:30N 51°54' E 004°25'0 0.0
2017-May-21 19:00N 51°54' E 004°25'0 0.0
2017-May-21 18:30N 51°54' E 004°25'0 0.0
2017-May-21 18:00N 51°54' E 004°25'0 0.0
2017-May-21 17:30N 51°54' E 004°25'0 0.0
2017-May-21 17:00N 51°54' E 004°25'0 0.0
2017-May-21 16:30N 51°54' E 004°25'0 0.1
2017-May-21 16:00N 51°54' E 004°25'0 0.0
2017-May-21 15:30N 51°54' E 004°25'0 0.0
2017-May-21 15:00N 51°54' E 004°25'0 0.0
2017-May-21 14:00N 51°54' E 004°25'0 0.0
2017-May-21 13:30N 51°54' E 004°25'0 0.0
2017-May-21 13:00N 51°54' E 004°25'0 0.0
2017-May-21 12:30N 51°54' E 004°25'0 0.0
2017-May-21 12:00N 51°54' E 004°25'0 0.0
2017-May-21 11:30N 51°54' E 004°25'0 0.0
2017-May-21 11:00N 51°54' E 004°25'0 0.0
2017-May-21 10:30N 51°54' E 004°25'0 0.0
2017-May-21 10:00N 51°54' E 004°25'0 0.0
2017-May-21 09:30N 51°54' E 004°25'0 0.0
2017-May-21 09:00N 51°54' E 004°25'0 0.0
2017-May-21 08:30N 51°54' E 004°25'0 0.0
2017-May-21 08:00N 51°54' E 004°25'0 0.0
2017-May-21 07:30N 51°54' E 004°25'0 0.0
2017-May-21 07:00N 51°54' E 004°25'0 0.0
2017-May-21 06:30N 51°54' E 004°25'0 0.2
2017-May-21 06:00N 51°54' E 004°25'4 7.1
2017-May-21 05:30N 51°54' E 004°19'4 7.5
2017-May-21 05:00N 51°55' E 004°14'4 7.3
2017-May-21 04:30N 51°57' E 004°09'3 6.9
2017-May-21 04:00N 51°59' E 004°04'3 6.9
2017-May-21 03:30N 52°00' E 003°59'4 8.6
2017-May-21 03:00N 51°60' E 003°52'4 8.5
2017-May-21 02:30N 51°59' E 003°45'4 8.8
2017-May-21 02:00N 51°57' E 003°39'4 8.9
2017-May-21 01:30N 51°56' E 003°32'5 9.3
2017-May-21 01:00N 51°55' E 003°25'5 9.6
2017-May-21 00:29N 51°53' E 003°17'6 9.8
2017-May-20 23:54N 51°52' E 003°08'37 9.9
2017-May-20 20:09N 51°31' E 002°18'210.8
2017-May-20 20:00N 51°30' E 002°16'510.6
2017-May-20 19:30N 51°25' E 002°12'510.4
2017-May-20 19:00N 51°21' E 002°09'510.4
2017-May-20 18:30N 51°16' E 002°05'5 9.9
2017-May-20 18:00N 51°12' E 002°00'510.1
2017-May-20 17:30N 51°09' E 001°54'5 9.8
2017-May-20 17:00N 51°06' E 001°48'5 9.7
2017-May-20 16:30N 51°02' E 001°42'5 9.2
2017-May-20 16:00N 50°59' E 001°37'4 8.7
2017-May-20 15:30N 50°56' E 001°33'4 7.9
2017-May-20 14:59N 50°52' E 001°29'60 7.9
2017-May-20 07:27N 50°20' E 000°10'5 9.1
2017-May-20 06:53N 50°19' E 000°02'5 9.2
2017-May-20 06:21N 50°18' W 000°05'8 9.4
2017-May-20 05:33N 50°15' W 000°17'1 9.6
2017-May-20 05:29N 50°15' W 000°18'113 9.6
2017-May-19 17:42N 49°41' W 003°06'91 9.6
2017-May-19 08:12N 48°56' W 005°06'2 9.9
2017-May-19 07:58N 48°55' W 005°10'  
2017-May-17 02:21N 42°02' W 009°16'21 8.1
2017-May-16 23:46N 41°42' W 009°06'2 8.0
2017-May-16 23:29N 41°40' W 009°04'4 7.9
2017-May-16 22:59N 41°37' W 009°02'4 7.9
2017-May-16 22:28N 41°33' W 008°60'4 7.8
2017-May-16 21:56N 41°29' W 008°58'3 7.8
2017-May-16 21:30N 41°26' W 008°56'4 7.7
2017-May-16 20:57N 41°22' W 008°54'3 7.8
2017-May-16 20:30N 41°19' W 008°52'7 7.7
2017-May-16 19:36N 41°13' W 008°48'1 6.8
2017-May-16 19:30N 41°12' W 008°48'3 6.8
2017-May-16 19:00N 41°10' W 008°44'  

Dump ship's entire track history